Terminal Aerodrome Forecast
Issued by NWS

Home | Current Version | Previous Version | Graphics & Text | Print | Product List | Glossary On
Versions: 1 2 3 4 5 6 7 8 9 10 11 12 13 14 15 16 17 18 19
952
FTUS43 KIWX 140539
TAFSBN
TAF
KSBN 140539Z 1406/1506 17005KT P6SM VCSH BKN060
      TEMPO 1411/1415 3SM -SHRA BR
     FM141900 18008KT 6SM -SHRA VCTS OVC060CB
     FM150500 20013G21KT P6SM VCSH BKN060 WS020/21055KT=

USA.gov is the U.S. government's official web portal to all federal, state and local government web resources and services.